This is the latest recevied weather packets stored in our database for station/object KD9JJA. If no packets are shown the sender has not sent any weather packets the latest 10 day(s).
| Time | Temp. | Humidity | Pressure | Rain* | Wind** | Luminosity | Snow |
|---|---|---|---|---|---|---|---|
| 1777845704 | 16.67° C | 52% | 1014.4 hPa | 0 mm | - | 69 W/m² | - |
| 1777845402 | 16.67° C | 49% | 1014.7 hPa | 0 mm | - | 58 W/m² | - |
| 1777845098 | 16.67° C | 52% | 1014.6 hPa | 0 mm | - | 27 W/m² | - |
| 1777844797 | 16.67° C | 51% | 1014.5 hPa | 0 mm | - | 37 W/m² | - |
| 1777844492 | 16.67° C | 54% | 1014.5 hPa | 0 mm | - | 34 W/m² | - |
| 1777844186 | 16.67° C | 55% | 1014.5 hPa | 0 mm | - | 49 W/m² | - |
| 1777843882 | 16.11° C | 53% | 1014.8 hPa | 0 mm | - | 32 W/m² | - |
| 1777843580 | 16.11° C | 51% | 1014.5 hPa | 0 mm | - | 37 W/m² | - |
| 1777843277 | 16.67° C | 54% | 1014.4 hPa | 0 mm | - | 35 W/m² | - |
| 1777842975 | 16.67° C | 51% | 1014.8 hPa | 0 mm | - | 30 W/m² | - |
| 1777842670 | 16.67° C | 52% | 1015.3 hPa | 0 mm | - | 33 W/m² | - |
| 1777842367 | 16.67° C | 53% | 1015.1 hPa | 0 mm | - | 53 W/m² | - |
| 1777842063 | 16.67° C | 49% | 1015.1 hPa | 0 mm | - | 90 W/m² | - |
| 1777841759 | 16.67° C | 51% | 1015.3 hPa | 0 mm | - | 73 W/m² | - |
| 1777841455 | 16.67° C | 52% | 1015.5 hPa | 0 mm | - | 60 W/m² | - |
| 1777841153 | 16.67° C | 50% | 1015.9 hPa | 0 mm | - | 75 W/m² | - |
| 1777840850 | 16.67° C | 50% | 1015.9 hPa | 0 mm | - | 76 W/m² | - |
| 1777840547 | 16.67° C | 56% | 1016 hPa | 0 mm | - | 101 W/m² | - |
| 1777840244 | 16.67° C | 52% | 1016.5 hPa | 0 mm | - | 64 W/m² | - |
| 1777839941 | 16.67° C | 52% | 1016.6 hPa | 0 mm | - | 92 W/m² | - |
| 1777839634 | 16.67° C | 51% | 1016.3 hPa | 0 mm | - | 122 W/m² | - |
| 1777839332 | 16.67° C | 53% | 1016.6 hPa | 0 mm | - | 110 W/m² | - |
| 1777839029 | 16.67° C | 49% | 1016.2 hPa | 0 mm | - | 155 W/m² | - |
| 1777838725 | 16.67° C | 51% | 1016.2 hPa | 0 mm | - | 168 W/m² | - |
| 1777838421 | 17.22° C | 53% | 1016.2 hPa | 0 mm | - | 199 W/m² | - |
* Rain latest hour (hover to see other rain measurements)
** Current wind speed in m/s (hover to see current wind gust speed)